createdAt,value
2019-05-06T00:00:28.439Z,1011.57
2019-05-06T00:01:28.465Z,1011.56
2019-05-06T00:02:28.474Z,1011.55
2019-05-06T00:03:28.492Z,1011.58
2019-05-06T00:04:28.508Z,1011.58
2019-05-06T00:06:28.544Z,1011.6
2019-05-06T00:07:28.560Z,1011.56
2019-05-06T00:08:28.577Z,1011.59
2019-05-06T00:09:28.595Z,1011.61
2019-05-06T00:10:28.612Z,1011.6
2019-05-06T00:11:28.628Z,1011.58
2019-05-06T00:12:28.646Z,1011.58
2019-05-06T00:13:28.663Z,1011.59
2019-05-06T00:14:28.682Z,1011.58
2019-05-06T00:15:28.697Z,1011.56
2019-05-06T00:16:28.714Z,1011.56
2019-05-06T00:17:28.732Z,1011.54
2019-05-06T00:18:28.749Z,1011.54
2019-05-06T00:19:28.766Z,1011.57
2019-05-06T00:21:28.804Z,1011.57
2019-05-06T00:22:28.818Z,1011.56
2019-05-06T00:23:28.835Z,1011.58
2019-05-06T00:24:28.852Z,1011.57
2019-05-06T00:25:28.872Z,1011.53
2019-05-06T00:26:28.886Z,1011.54
2019-05-06T00:27:28.903Z,1011.57
2019-05-06T00:28:28.924Z,1011.53
2019-05-06T00:29:28.937Z,1011.54
2019-05-06T00:30:28.955Z,1011.51
2019-05-06T00:31:28.971Z,1011.52
2019-05-06T00:32:28.989Z,1011.54
2019-05-06T00:33:29.005Z,1011.52
2019-05-06T00:34:29.022Z,1011.54
2019-05-06T00:35:29.042Z,1011.55
2019-05-06T00:36:29.056Z,1011.47
2019-05-06T00:37:29.074Z,1011.54
2019-05-06T00:38:29.090Z,1011.56
2019-05-06T00:39:29.107Z,1011.61
2019-05-06T00:40:29.123Z,1011.59
2019-05-06T00:41:29.141Z,1011.65
2019-05-06T00:42:29.162Z,1011.61
2019-05-06T00:43:29.175Z,1011.63
2019-05-06T00:44:29.191Z,1011.64
2019-05-06T00:45:29.210Z,1011.63
2019-05-06T00:46:29.228Z,1011.62
2019-05-06T00:47:29.243Z,1011.58
2019-05-06T00:48:29.259Z,1011.58
2019-05-06T00:49:29.276Z,1011.59
2019-05-06T00:50:29.293Z,1011.61
2019-05-06T00:51:29.311Z,1011.6
2019-05-06T00:53:29.344Z,1011.58
2019-05-06T00:54:29.361Z,1011.56
2019-05-06T00:55:29.380Z,1011.58
2019-05-06T00:56:29.395Z,1011.59
2019-05-06T00:57:29.413Z,1011.61
2019-05-06T00:58:29.429Z,1011.61
2019-05-06T00:59:29.445Z,1011.63
2019-05-06T01:00:29.462Z,1011.62
2019-05-06T01:01:29.961Z,1011.57
2019-05-06T01:02:29.496Z,1011.63
2019-05-06T01:03:29.513Z,1011.61
2019-05-06T01:04:29.530Z,1011.59
2019-05-06T01:05:29.547Z,1011.6
2019-05-06T01:06:29.563Z,1011.62
2019-05-06T01:07:29.581Z,1011.6
2019-05-06T01:09:29.617Z,1011.67
2019-05-06T01:10:29.631Z,1011.66
2019-05-06T01:11:29.649Z,1011.66
2019-05-06T01:12:29.666Z,1011.7
2019-05-06T01:13:29.683Z,1011.67
2019-05-06T01:14:29.699Z,1011.73
2019-05-06T01:15:29.718Z,1011.71
2019-05-06T01:16:29.734Z,1011.69
2019-05-06T01:17:29.749Z,1011.72
2019-05-06T01:18:29.767Z,1011.69
2019-05-06T01:19:29.784Z,1011.66
2019-05-06T01:20:29.802Z,1011.69
2019-05-06T01:21:29.818Z,1011.67
2019-05-06T01:22:29.835Z,1011.7
2019-05-06T01:23:29.852Z,1011.75
2019-05-06T01:25:29.886Z,1011.76
2019-05-06T01:26:29.903Z,1011.78
2019-05-06T01:27:29.920Z,1011.77
2019-05-06T01:28:29.937Z,1011.82
2019-05-06T01:29:29.953Z,1011.81
2019-05-06T01:30:29.971Z,1011.81
2019-05-06T01:31:40.488Z,1011.82
2019-05-06T01:32:30.005Z,1011.81
2019-05-06T01:33:30.021Z,1011.86
2019-05-06T01:34:30.039Z,1011.85
2019-05-06T01:35:30.056Z,1011.86
2019-05-06T01:36:30.072Z,1011.87
2019-05-06T01:37:30.090Z,1011.93
2019-05-06T01:38:30.107Z,1011.84
2019-05-06T01:39:30.123Z,1011.91
2019-05-06T01:41:30.159Z,1011.94
2019-05-06T01:42:30.175Z,1011.92
2019-05-06T01:43:30.192Z,1011.95
2019-05-06T01:44:30.209Z,1011.96
2019-05-06T01:45:30.228Z,1011.93
2019-05-06T01:46:30.242Z,1011.98
2019-05-06T01:47:30.259Z,1011.92
2019-05-06T01:48:30.281Z,1011.9
2019-05-06T01:49:30.294Z,1011.93
2019-05-06T01:50:30.310Z,1011.87
2019-05-06T01:51:30.327Z,1011.93
2019-05-06T01:52:30.345Z,1011.9
2019-05-06T01:53:30.362Z,1011.97
2019-05-06T01:54:30.379Z,1011.92
2019-05-06T01:56:30.414Z,1011.91
2019-05-06T01:57:30.432Z,1011.92
2019-05-06T01:58:30.448Z,1011.91
2019-05-06T01:59:30.465Z,1011.9
2019-05-06T02:00:30.482Z,1011.96
2019-05-06T02:01:30.498Z,1011.91
2019-05-06T02:02:30.516Z,1011.93
2019-05-06T02:03:30.533Z,1011.87
2019-05-06T02:04:30.549Z,1011.96
2019-05-06T02:05:30.566Z,1011.98
2019-05-06T02:06:30.584Z,1011.97
2019-05-06T02:07:30.601Z,1012.07
2019-05-06T02:08:30.617Z,1012.02
2019-05-06T02:09:30.635Z,1011.96
2019-05-06T02:10:30.652Z,1011.95
2019-05-06T02:11:30.669Z,1012
2019-05-06T02:12:30.687Z,1012
2019-05-06T02:13:30.703Z,1012.01
2019-05-06T02:14:30.720Z,1011.97
2019-05-06T02:15:30.736Z,1011.95
2019-05-06T02:16:30.757Z,1011.99
2019-05-06T02:17:30.770Z,1012.02
2019-05-06T02:18:30.789Z,1012.02
2019-05-06T02:19:30.804Z,1012.03
2019-05-06T02:20:30.823Z,1012.06
2019-05-06T02:21:30.839Z,1012.04
2019-05-06T02:22:30.855Z,1012.02
2019-05-06T02:23:30.872Z,1012.03
2019-05-06T02:24:30.890Z,1012.05
2019-05-06T02:25:30.906Z,1011.99
2019-05-06T02:26:30.921Z,1012.04
2019-05-06T02:28:30.956Z,1012.01
2019-05-06T02:29:30.998Z,1012.03
2019-05-06T02:30:30.994Z,1011.95
2019-05-06T02:31:31.009Z,1011.99
2019-05-06T02:32:31.809Z,1011.95
2019-05-06T02:33:31.041Z,1011.95
2019-05-06T02:34:31.058Z,1011.97
2019-05-06T02:35:31.074Z,1011.97
2019-05-06T02:36:31.100Z,1011.94
2019-05-06T02:37:31.108Z,1011.95
2019-05-06T02:38:38.886Z,1011.96
2019-05-06T02:39:33.887Z,1011.98
2019-05-06T02:40:33.156Z,1011.96
2019-05-06T02:41:33.673Z,1011.95
2019-05-06T02:42:33.595Z,1011.96
2019-05-06T02:44:33.536Z,1012.01
2019-05-06T02:45:33.407Z,1011.98
2019-05-06T02:46:33.734Z,1011.99
2019-05-06T02:47:34.032Z,1011.98
2019-05-06T02:48:33.492Z,1011.97
2019-05-06T02:49:32.958Z,1012.01
2019-05-06T02:50:33.893Z,1012.01
2019-05-06T02:51:33.278Z,1011.98
2019-05-06T02:52:32.915Z,1012.02
2019-05-06T02:53:33.341Z,1011.99
2019-05-06T02:54:34.397Z,1012
2019-05-06T02:55:33.335Z,1012.03
2019-05-06T02:56:33.282Z,1012.05
2019-05-06T02:57:33.439Z,1012.05
2019-05-06T02:58:32.983Z,1012.03
2019-05-06T03:00:32.959Z,1012.02
2019-05-06T03:01:33.963Z,1012.06
2019-05-06T03:02:39.661Z,1012.07
2019-05-06T03:03:33.596Z,1012.06
2019-05-06T03:04:33.136Z,1012.11
2019-05-06T03:05:33.281Z,1012.11
2019-05-06T03:06:33.708Z,1012.12
2019-05-06T03:07:32.714Z,1012.15
2019-05-06T03:08:32.809Z,1012.14
2019-05-06T03:09:33.903Z,1012.14
2019-05-06T03:10:32.856Z,1012.11
2019-05-06T03:11:33.125Z,1012.17
2019-05-06T03:12:33.497Z,1012.13
2019-05-06T03:13:33.882Z,1012.14
2019-05-06T03:14:34.508Z,1012.12
2019-05-06T03:16:33.252Z,1012.1
2019-05-06T03:17:32.818Z,1012.13
2019-05-06T03:18:32.675Z,1012.08
2019-05-06T03:19:34.091Z,1012.14
2019-05-06T03:20:32.340Z,1012.08
2019-05-06T03:21:33.632Z,1012.11
2019-05-06T03:22:34.370Z,1012.1
2019-05-06T03:23:34.758Z,1012.11
2019-05-06T03:24:33.055Z,1012.12
2019-05-06T03:25:33.100Z,1012.14
2019-05-06T03:26:33.103Z,1012.17
2019-05-06T03:27:32.815Z,1012.14
2019-05-06T03:28:33.290Z,1012.13
2019-05-06T03:29:33.350Z,1012.12
2019-05-06T03:31:36.319Z,1012.16
2019-05-06T03:32:37.522Z,1012.13
2019-05-06T03:35:18.655Z,1012.2
2019-05-06T03:36:39.279Z,1012.19
2019-05-06T03:37:33.408Z,1012.18
2019-05-06T03:38:33.380Z,1012.19
2019-05-06T03:39:33.743Z,1012.21
2019-05-06T03:40:35.803Z,1012.2
2019-05-06T03:41:33.751Z,1012.19
2019-05-06T03:42:33.393Z,1012.23
2019-05-06T03:44:33.017Z,1012.21
2019-05-06T03:45:33.439Z,1012.21
2019-05-06T03:46:33.579Z,1012.19
2019-05-06T03:47:34.413Z,1012.2
2019-05-06T03:48:33.243Z,1012.24
2019-05-06T03:49:33.789Z,1012.27
2019-05-06T03:50:33.594Z,1012.22
2019-05-06T03:51:34.132Z,1012.24
2019-05-06T03:52:34.104Z,1012.3
2019-05-06T03:53:33.276Z,1012.23
2019-05-06T03:54:34.233Z,1012.23
2019-05-06T03:55:34.154Z,1012.23
2019-05-06T03:56:33.836Z,1012.27
2019-05-06T03:57:33.227Z,1012.25
2019-05-06T03:58:34.567Z,1012.3
2019-05-06T03:59:33.461Z,1012.29
2019-05-06T04:00:33.301Z,1012.3
2019-05-06T04:01:33.519Z,1012.26
2019-05-06T04:02:33.568Z,1012.3
2019-05-06T04:03:43.751Z,1012.31
2019-05-06T04:04:33.158Z,1012.31
2019-05-06T04:05:33.379Z,1012.31
2019-05-06T04:06:33.191Z,1012.29
2019-05-06T04:07:33.970Z,1012.27
2019-05-06T04:08:34.140Z,1012.3
2019-05-06T04:09:33.497Z,1012.3
2019-05-06T04:10:33.641Z,1012.31
2019-05-06T04:11:35.587Z,1012.32
2019-05-06T04:12:33.076Z,1012.3
2019-05-06T04:13:33.162Z,1012.32
2019-05-06T04:14:33.634Z,1012.36
2019-05-06T04:16:33.741Z,1012.4
2019-05-06T04:17:32.963Z,1012.36
2019-05-06T04:18:33.357Z,1012.45
2019-05-06T04:19:33.305Z,1012.41
2019-05-06T04:20:34.240Z,1012.45
2019-05-06T04:21:32.913Z,1012.45
2019-05-06T04:22:33.227Z,1012.46
2019-05-06T04:23:33.231Z,1012.46
2019-05-06T04:24:33.656Z,1012.5
2019-05-06T04:25:33.968Z,1012.51
2019-05-06T04:26:32.996Z,1012.53
2019-05-06T04:27:33.474Z,1012.51
2019-05-06T04:28:34.117Z,1012.52
2019-05-06T04:29:35.234Z,1012.52
2019-05-06T04:30:33.455Z,1012.53
2019-05-06T04:32:34.014Z,1012.56
2019-05-06T04:33:33.272Z,1012.58
2019-05-06T04:34:33.271Z,1012.59
2019-05-06T04:35:33.749Z,1012.63
2019-05-06T04:36:33.611Z,1012.66
2019-05-06T04:37:33.813Z,1012.65
2019-05-06T04:38:33.633Z,1012.68
2019-05-06T04:39:33.218Z,1012.66
2019-05-06T04:40:33.171Z,1012.62
2019-05-06T04:41:34.032Z,1012.67
2019-05-06T04:42:34.381Z,1012.63
2019-05-06T04:43:33.569Z,1012.66
2019-05-06T04:44:33.227Z,1012.68
2019-05-06T04:45:33.634Z,1012.69
2019-05-06T04:46:34.773Z,1012.7
2019-05-06T04:48:33.231Z,1012.71
2019-05-06T04:49:33.250Z,1012.76
2019-05-06T04:50:33.290Z,1012.9
2019-05-06T04:51:36.736Z,1012.99
2019-05-06T04:52:34.134Z,1013
2019-05-06T04:53:33.688Z,1013.03
2019-05-06T04:54:33.598Z,1013.13
2019-05-06T04:55:33.662Z,1013.15
2019-05-06T04:56:33.403Z,1013.15
2019-05-06T04:57:33.659Z,1013.22
2019-05-06T04:58:33.636Z,1013.21
2019-05-06T04:59:33.122Z,1013.26
2019-05-06T05:00:33.293Z,1013.33
2019-05-06T05:01:34.058Z,1013.35
2019-05-06T05:02:33.741Z,1013.36
2019-05-06T05:04:36.681Z,1013.34
2019-05-06T05:05:34.030Z,1013.38
2019-05-06T05:06:34.053Z,1013.37
2019-05-06T05:07:34.076Z,1013.42
2019-05-06T05:08:34.100Z,1013.48
2019-05-06T05:09:34.123Z,1013.5
2019-05-06T05:11:34.173Z,1013.47
2019-05-06T05:12:34.195Z,1013.49
2019-05-06T05:13:34.219Z,1013.5
2019-05-06T05:14:34.243Z,1013.5
2019-05-06T05:15:34.269Z,1013.49
2019-05-06T05:16:34.292Z,1013.52
2019-05-06T05:17:34.320Z,1013.53
2019-05-06T05:18:34.343Z,1013.59
2019-05-06T05:19:34.367Z,1013.57
2019-05-06T05:20:39.605Z,1013.58
2019-05-06T05:21:34.419Z,1013.58
2019-05-06T05:22:34.445Z,1013.59
2019-05-06T05:23:34.470Z,1013.53
2019-05-06T05:24:34.496Z,1013.54
2019-05-06T05:25:34.523Z,1013.57
2019-05-06T05:26:34.649Z,1013.57
2019-05-06T05:27:34.574Z,1013.58
2019-05-06T05:28:34.601Z,1013.56
2019-05-06T05:29:34.628Z,1013.56
2019-05-06T05:30:34.653Z,1013.56
2019-05-06T05:31:34.691Z,1013.59
2019-05-06T05:32:34.708Z,1013.56
2019-05-06T05:33:34.736Z,1013.58
2019-05-06T05:34:39.736Z,1013.54
2019-05-06T05:35:34.789Z,1013.63
2019-05-06T05:36:34.817Z,1013.61
2019-05-06T05:37:34.845Z,1013.64
2019-05-06T05:38:34.871Z,1013.54
2019-05-06T05:39:34.900Z,1013.56
2019-05-06T05:40:34.927Z,1013.57
2019-05-06T05:41:34.955Z,1013.51
2019-05-06T05:43:35.011Z,1013.53
2019-05-06T05:44:35.039Z,1013.55
2019-05-06T05:45:35.067Z,1013.58
2019-05-06T05:46:35.098Z,1013.62
2019-05-06T05:47:35.124Z,1013.65
2019-05-06T05:48:35.153Z,1013.67
2019-05-06T05:49:35.181Z,1013.67
2019-05-06T05:50:35.225Z,1013.72
2019-05-06T05:51:35.242Z,1013.73
2019-05-06T05:52:35.270Z,1013.76
2019-05-06T05:53:35.297Z,1013.86
2019-05-06T05:54:35.326Z,1013.89
2019-05-06T05:55:35.373Z,1013.92
2019-05-06T05:56:35.384Z,1013.9
2019-05-06T05:57:35.414Z,1013.97
2019-05-06T05:59:35.474Z,1014.06
2019-05-06T06:00:35.504Z,1014.06
2019-05-06T06:01:35.533Z,1014.11
2019-05-06T06:02:35.565Z,1014.1
2019-05-06T06:03:35.592Z,1014.09
2019-05-06T06:04:35.623Z,1014.12
2019-05-06T06:05:35.653Z,1014.16
2019-05-06T06:06:35.684Z,1014.21
2019-05-06T06:07:35.713Z,1014.2
2019-05-06T06:08:36.945Z,1014.15
2019-05-06T06:09:35.775Z,1014.24
2019-05-06T06:10:35.805Z,1014.3
2019-05-06T06:11:35.834Z,1014.27
2019-05-06T06:12:35.866Z,1014.19
2019-05-06T06:13:35.896Z,1014.18
2019-05-06T06:15:35.957Z,1014.26
2019-05-06T06:16:35.988Z,1014.3
2019-05-06T06:17:36.019Z,1014.3
2019-05-06T06:18:36.048Z,1014.29
2019-05-06T06:19:36.080Z,1014.28
2019-05-06T06:20:36.111Z,1014.28
2019-05-06T06:21:36.142Z,1014.31
2019-05-06T06:22:36.172Z,1014.33
2019-05-06T06:23:36.203Z,1014.22
2019-05-06T06:24:36.240Z,1014.3
2019-05-06T06:25:36.266Z,1014.35
2019-05-06T06:26:36.297Z,1014.42
2019-05-06T06:27:36.331Z,1014.41
2019-05-06T06:28:36.361Z,1014.43
2019-05-06T06:29:36.391Z,1014.44
2019-05-06T06:31:36.458Z,1014.45
2019-05-06T06:32:36.488Z,1014.49
2019-05-06T06:33:36.522Z,1014.5
2019-05-06T06:34:36.551Z,1014.5
2019-05-06T06:35:36.584Z,1014.46
2019-05-06T06:36:36.614Z,1014.48
2019-05-06T06:37:36.647Z,1014.48
2019-05-06T06:38:36.679Z,1014.55
2019-05-06T06:39:36.712Z,1014.57
2019-05-06T06:40:36.742Z,1014.59
2019-05-06T06:41:36.774Z,1014.61
2019-05-06T06:42:36.806Z,1014.62
2019-05-06T06:43:36.839Z,1014.65
2019-05-06T06:44:36.872Z,1014.68
2019-05-06T06:46:36.936Z,1014.74
2019-05-06T06:47:36.968Z,1014.75
2019-05-06T06:48:37.000Z,1014.74
2019-05-06T06:49:37.034Z,1014.85
2019-05-06T06:50:37.065Z,1014.83
2019-05-06T06:51:37.096Z,1014.84
2019-05-06T06:52:37.129Z,1014.6
2019-05-06T06:53:37.161Z,1014.09
2019-05-06T06:54:37.192Z,1013.87
2019-05-06T06:55:37.226Z,1013.77
2019-05-06T06:56:37.258Z,1013.26
2019-05-06T06:57:37.291Z,1013.31
2019-05-06T06:58:37.324Z,1013.82
2019-05-06T06:59:37.354Z,1013.55
2019-05-06T07:00:37.387Z,1013.91
2019-05-06T07:01:37.419Z,1013.83
2019-05-06T07:02:37.462Z,1013.9
2019-05-06T07:03:37.482Z,1013.56
2019-05-06T07:04:37.519Z,1013.26
2019-05-06T07:05:37.544Z,1013.24
2019-05-06T07:06:37.576Z,1013.87
2019-05-06T07:07:43.304Z,1013.19
2019-05-06T07:08:37.972Z,1013.18
2019-05-06T07:09:37.667Z,1013.86
2019-05-06T07:10:37.699Z,1013.19
2019-05-06T07:11:37.729Z,1013.2
2019-05-06T07:12:37.758Z,1013.18
2019-05-06T07:13:37.789Z,1013.86
2019-05-06T07:14:37.818Z,1013.18
2019-05-06T07:15:37.846Z,1013.18
2019-05-06T07:16:37.874Z,1013.18
2019-05-06T07:18:37.932Z,1013.7
2019-05-06T07:19:37.963Z,1013.19
2019-05-06T07:20:37.988Z,1013.19
2019-05-06T07:21:38.552Z,1013.12
2019-05-06T07:22:38.045Z,1013.17
2019-05-06T07:23:38.073Z,1014.28
2019-05-06T07:24:38.100Z,1013.74
2019-05-06T07:25:38.127Z,1014.17
2019-05-06T07:26:38.155Z,1013.3
2019-05-06T07:27:38.182Z,1013.89
2019-05-06T07:28:38.210Z,1013.1
2019-05-06T07:29:38.237Z,1014.09
2019-05-06T07:30:38.265Z,1013.87
2019-05-06T07:31:38.292Z,1013.64
2019-05-06T07:32:38.319Z,1013.12
2019-05-06T07:34:38.376Z,1013.97
2019-05-06T07:35:40.959Z,1013.99
2019-05-06T07:36:38.430Z,1013.94
2019-05-06T07:37:38.458Z,1013.91
2019-05-06T07:38:38.485Z,1013.93
2019-05-06T07:39:38.514Z,1013.89
2019-05-06T07:40:38.542Z,1013.96
2019-05-06T07:41:38.582Z,1013.93
2019-05-06T07:42:38.602Z,1013.9
2019-05-06T07:43:38.631Z,1013.38
2019-05-06T07:44:38.659Z,1013.13
2019-05-06T07:45:38.686Z,1013.46
2019-05-06T07:46:38.714Z,1013.2
2019-05-06T07:47:38.744Z,1013.64
2019-05-06T07:48:38.773Z,1013.88
2019-05-06T07:50:38.830Z,1013.69
2019-05-06T07:51:38.858Z,1013.81
2019-05-06T07:52:38.887Z,1013.76
2019-05-06T07:53:38.915Z,1013.78
2019-05-06T07:54:38.944Z,1013.73
2019-05-06T07:55:38.974Z,1013.71
2019-05-06T07:56:39.003Z,1013.5
2019-05-06T07:57:39.030Z,1012.96
2019-05-06T07:58:39.060Z,1013.01
2019-05-06T07:59:39.089Z,1013.04
2019-05-06T08:00:39.118Z,1013.02
2019-05-06T08:01:39.146Z,1012.99
2019-05-06T08:02:39.175Z,1013.69
2019-05-06T08:03:39.204Z,1013.66
2019-05-06T08:04:39.231Z,1013.63
2019-05-06T08:06:39.288Z,1013.06
2019-05-06T08:07:39.317Z,1013
2019-05-06T08:08:39.344Z,1013
2019-05-06T08:09:39.382Z,1013.63
2019-05-06T08:10:39.401Z,1013.38
2019-05-06T08:11:39.431Z,1012.99
2019-05-06T08:12:39.467Z,1013.51
2019-05-06T08:13:39.485Z,1013.61
2019-05-06T08:14:39.562Z,1013.54
2019-05-06T08:15:41.894Z,1013.47
2019-05-06T08:16:42.348Z,1013.4
2019-05-06T08:17:42.025Z,1013.04
2019-05-06T08:18:39.626Z,1013.01
2019-05-06T08:19:39.654Z,1013.21
2019-05-06T08:21:39.711Z,1013.1
2019-05-06T08:22:39.739Z,1013.02
2019-05-06T08:23:39.767Z,1013.01
2019-05-06T08:24:39.796Z,1012.95
2019-05-06T08:25:42.204Z,1012.97
2019-05-06T08:26:39.851Z,1013.01
2019-05-06T08:27:39.879Z,1013.02
2019-05-06T08:28:41.504Z,1013.17
2019-05-06T08:29:42.201Z,1013.03
2019-05-06T08:30:40.011Z,1013.49
2019-05-06T08:31:39.987Z,1013.29
2019-05-06T08:32:42.351Z,1013.06
2019-05-06T08:33:40.043Z,1013.56
2019-05-06T08:34:42.005Z,1013.12
2019-05-06T08:35:42.339Z,1012.98
2019-05-06T08:36:42.448Z,1013.02
2019-05-06T08:37:42.447Z,1013.04
2019-05-06T08:38:41.813Z,1012.94
2019-05-06T08:39:43.713Z,1012.98
2019-05-06T08:40:40.226Z,1013.25
2019-05-06T08:41:42.195Z,1013.26
2019-05-06T08:42:42.346Z,1013.2
2019-05-06T08:43:42.147Z,1013.23
2019-05-06T08:44:42.468Z,1013.17
2019-05-06T08:45:42.065Z,1013.07
2019-05-06T08:46:42.802Z,1012.95
2019-05-06T08:47:42.487Z,1012.93
2019-05-06T08:48:40.437Z,1012.89
2019-05-06T08:49:41.860Z,1012.95
2019-05-06T08:50:42.416Z,1012.92
2019-05-06T08:51:42.569Z,1013.14
2019-05-06T08:53:42.421Z,1012.95
2019-05-06T08:54:40.595Z,1012.92
2019-05-06T08:55:42.052Z,1013.11
2019-05-06T08:56:42.529Z,1013.08
2019-05-06T08:57:42.032Z,1013
2019-05-06T08:58:42.910Z,1013.04
2019-05-06T08:59:42.336Z,1013.04
2019-05-06T09:00:42.748Z,1013.05
2019-05-06T09:01:42.368Z,1012.97
2019-05-06T09:02:42.181Z,1012.91
2019-05-06T09:03:42.238Z,1012.85
2019-05-06T09:04:42.696Z,1012.82
2019-05-06T09:05:42.327Z,1012.85
2019-05-06T09:06:42.841Z,1012.77
2019-05-06T09:07:42.798Z,1012.73
2019-05-06T09:09:42.083Z,1012.78
2019-05-06T09:10:42.904Z,1012.83
2019-05-06T09:11:43.082Z,1012.69
2019-05-06T09:12:42.493Z,1012.72
2019-05-06T09:13:42.843Z,1012.69
2019-05-06T09:14:42.985Z,1012.76
2019-05-06T09:15:42.834Z,1012.73
2019-05-06T09:16:43.685Z,1012.74
2019-05-06T09:17:42.004Z,1012.73
2019-05-06T09:18:42.485Z,1012.73
2019-05-06T09:19:42.628Z,1012.69
2019-05-06T09:20:43.114Z,1012.69
2019-05-06T09:21:45.239Z,1012.66
2019-05-06T09:22:42.906Z,1012.66
2019-05-06T09:23:42.343Z,1012.64
2019-05-06T09:25:42.431Z,1012.63
2019-05-06T09:26:43.063Z,1012.58
2019-05-06T09:27:42.111Z,1012.61
2019-05-06T09:28:42.621Z,1012.6
2019-05-06T09:29:42.911Z,1012.63
2019-05-06T09:30:43.192Z,1012.65
2019-05-06T09:31:42.681Z,1012.63
2019-05-06T09:32:42.809Z,1012.6
2019-05-06T09:33:42.440Z,1012.62
2019-05-06T09:34:43.031Z,1012.52
2019-05-06T09:35:42.159Z,1012.65
2019-05-06T09:36:51.115Z,1012.69
2019-05-06T09:37:42.899Z,1012.61
2019-05-06T09:38:42.392Z,1012.59
2019-05-06T09:39:42.976Z,1012.55
2019-05-06T09:41:46.322Z,1012.56
2019-05-06T09:42:42.533Z,1012.51
2019-05-06T09:43:43.280Z,1012.53
2019-05-06T09:44:42.668Z,1012.52
2019-05-06T09:45:42.461Z,1012.46
2019-05-06T09:46:42.578Z,1012.49
2019-05-06T09:47:42.494Z,1012.57
2019-05-06T09:48:42.428Z,1012.42
2019-05-06T09:49:42.524Z,1012.46
2019-05-06T09:50:45.957Z,1012.52
2019-05-06T09:51:42.514Z,1012.47
2019-05-06T09:52:42.650Z,1012.43
2019-05-06T09:53:43.201Z,1012.44
2019-05-06T09:54:42.714Z,1012.43
2019-05-06T09:56:42.714Z,1012.41
2019-05-06T09:57:42.631Z,1012.41
2019-05-06T09:58:42.802Z,1012.47
2019-05-06T09:59:42.289Z,1012.44
2019-05-06T10:00:42.858Z,1012.45
2019-05-06T10:01:43.691Z,1012.43
2019-05-06T10:02:42.926Z,1012.45
2019-05-06T10:03:42.820Z,1012.45
2019-05-06T10:04:42.793Z,1012.46
2019-05-06T10:05:42.586Z,1012.43
2019-05-06T10:06:55.611Z,1012.47
2019-05-06T10:07:42.411Z,1012.39
2019-05-06T10:08:42.438Z,1012.38
2019-05-06T10:09:43.377Z,1012.36
2019-05-06T10:10:55.531Z,1012.4
2019-05-06T10:11:42.508Z,1012.41
2019-05-06T10:12:42.531Z,1012.39
2019-05-06T10:13:43.059Z,1012.44
2019-05-06T10:14:43.246Z,1012.44
2019-05-06T10:15:42.947Z,1012.37
2019-05-06T10:16:43.119Z,1012.38
2019-05-06T10:17:42.929Z,1012.36
2019-05-06T10:18:42.676Z,1012.35
2019-05-06T10:19:43.000Z,1012.31
2019-05-06T10:20:43.060Z,1012.27
2019-05-06T10:21:42.894Z,1012.37
2019-05-06T10:22:43.111Z,1012.4
2019-05-06T10:23:42.794Z,1012.36
2019-05-06T10:24:43.348Z,1012.37
2019-05-06T10:25:43.570Z,1012.36
2019-05-06T10:26:43.251Z,1012.33
2019-05-06T10:28:42.917Z,1012.31
2019-05-06T10:29:43.275Z,1012.26
2019-05-06T10:30:42.962Z,1012.2
2019-05-06T10:31:43.148Z,1012.25
2019-05-06T10:32:43.013Z,1012.3
2019-05-06T10:33:43.033Z,1012.28
2019-05-06T10:34:43.540Z,1012.31
2019-05-06T10:35:43.081Z,1012.34
2019-05-06T10:36:43.105Z,1012.41
2019-05-06T10:37:43.138Z,1012.3
2019-05-06T10:38:43.152Z,1012.28
2019-05-06T10:39:43.176Z,1012.28
2019-05-06T10:40:57.049Z,1012.28
2019-05-06T10:41:43.224Z,1012.23
2019-05-06T10:42:43.248Z,1012.26
2019-05-06T10:44:43.298Z,1012.28
2019-05-06T10:45:43.320Z,1012.3
2019-05-06T10:46:43.345Z,1012.26
2019-05-06T10:47:43.371Z,1012.27
2019-05-06T10:48:43.389Z,1012.29
2019-05-06T10:49:43.420Z,1012.31
2019-05-06T10:50:43.441Z,1012.27
2019-05-06T10:51:43.462Z,1012.29
2019-05-06T10:52:43.484Z,1012.19
2019-05-06T10:53:43.508Z,1012.28
2019-05-06T10:54:43.534Z,1012.31
2019-05-06T10:55:43.558Z,1012.25
2019-05-06T10:56:52.615Z,1012.28
2019-05-06T10:57:43.603Z,1012.13
2019-05-06T10:58:44.055Z,1012.11
2019-05-06T11:00:43.675Z,1012.13
2019-05-06T11:01:43.699Z,1012.12
2019-05-06T11:02:43.824Z,1012.14
2019-05-06T11:03:43.746Z,1012.15
2019-05-06T11:04:43.771Z,1012.18
2019-05-06T11:05:43.795Z,1012.14
2019-05-06T11:06:43.819Z,1012.15
2019-05-06T11:07:43.842Z,1012.15
2019-05-06T11:08:43.866Z,1012.18
2019-05-06T11:09:43.890Z,1012.15
2019-05-06T11:10:45.253Z,1012.13
2019-05-06T11:11:43.937Z,1012.05
2019-05-06T11:12:43.961Z,1012
2019-05-06T11:13:43.987Z,1012.1
2019-05-06T11:14:44.008Z,1011.99
2019-05-06T11:16:44.055Z,1011.95
2019-05-06T11:17:44.079Z,1011.91
2019-05-06T11:18:44.104Z,1011.95
2019-05-06T11:19:44.126Z,1011.99
2019-05-06T11:20:44.301Z,1011.95
2019-05-06T11:21:44.975Z,1012
2019-05-06T11:22:44.198Z,1011.97
2019-05-06T11:23:44.220Z,1011.94
2019-05-06T11:24:44.244Z,1011.99
2019-05-06T11:25:44.267Z,1011.94
2019-05-06T11:26:44.290Z,1011.97
2019-05-06T11:27:45.286Z,1011.98
2019-05-06T11:28:44.337Z,1011.95
2019-05-06T11:29:44.362Z,1012
2019-05-06T11:31:44.409Z,1012.01
2019-05-06T11:32:44.675Z,1011.98
2019-05-06T11:33:44.455Z,1011.95
2019-05-06T11:34:44.479Z,1011.97
2019-05-06T11:35:44.503Z,1011.99
2019-05-06T11:36:44.531Z,1011.99
2019-05-06T11:37:49.956Z,1012
2019-05-06T11:38:44.573Z,1012
2019-05-06T11:39:44.596Z,1011.97
2019-05-06T11:40:44.621Z,1011.95
2019-05-06T11:42:01.343Z,1012.01
2019-05-06T11:42:44.667Z,1011.93
2019-05-06T11:43:44.693Z,1012.01
2019-05-06T11:44:44.715Z,1011.93
2019-05-06T11:45:44.737Z,1012.01
2019-05-06T11:46:44.761Z,1011.92
2019-05-06T11:47:44.783Z,1011.89
2019-05-06T11:48:44.807Z,1011.91
2019-05-06T11:49:44.830Z,1011.91
2019-05-06T11:50:44.855Z,1011.92
2019-05-06T11:51:44.877Z,1011.91
2019-05-06T11:52:44.902Z,1011.82
2019-05-06T11:53:44.924Z,1011.84
2019-05-06T11:54:44.947Z,1011.87
2019-05-06T11:55:44.973Z,1011.86
2019-05-06T11:56:50.604Z,1011.83
2019-05-06T11:57:45.017Z,1011.84
2019-05-06T11:58:45.040Z,1011.9
2019-05-06T11:59:45.064Z,1011.81
2019-05-06T12:00:45.094Z,1011.87
2019-05-06T12:01:45.111Z,1011.92
2019-05-06T12:03:45.156Z,1011.82
2019-05-06T12:04:45.180Z,1011.77
2019-05-06T12:05:45.202Z,1011.78
2019-05-06T12:06:45.227Z,1011.72
2019-05-06T12:08:00.738Z,1011.76
2019-05-06T12:08:45.273Z,1011.81
2019-05-06T12:09:45.295Z,1011.8
2019-05-06T12:10:45.319Z,1011.81
2019-05-06T12:11:45.345Z,1011.76
2019-05-06T12:12:45.365Z,1011.8
2019-05-06T12:13:45.403Z,1011.79
2019-05-06T12:14:45.412Z,1011.85
2019-05-06T12:15:45.436Z,1011.84
2019-05-06T12:16:45.465Z,1011.82
2019-05-06T12:17:45.482Z,1011.78
2019-05-06T12:19:45.532Z,1011.82
2019-05-06T12:20:45.551Z,1011.77
2019-05-06T12:21:45.574Z,1011.77
2019-05-06T12:22:45.598Z,1011.84
2019-05-06T12:23:45.623Z,1011.79
2019-05-06T12:24:45.646Z,1011.72
2019-05-06T12:25:46.214Z,1011.74
2019-05-06T12:26:45.692Z,1011.77
2019-05-06T12:27:45.719Z,1011.81
2019-05-06T12:28:45.738Z,1011.75
2019-05-06T12:29:45.766Z,1011.76
2019-05-06T12:30:45.785Z,1011.72
2019-05-06T12:31:45.808Z,1011.7
2019-05-06T12:32:45.831Z,1011.73
2019-05-06T12:33:45.854Z,1011.74
2019-05-06T12:35:45.900Z,1011.74
2019-05-06T12:36:45.924Z,1011.72
2019-05-06T12:37:45.948Z,1011.78
2019-05-06T12:38:45.970Z,1011.76
2019-05-06T12:39:45.995Z,1011.81
2019-05-06T12:40:46.017Z,1011.74
2019-05-06T12:41:46.042Z,1011.77
2019-05-06T12:42:46.063Z,1011.75
2019-05-06T12:43:46.087Z,1011.73
2019-05-06T12:44:46.111Z,1011.75
2019-05-06T12:45:46.134Z,1011.79
2019-05-06T12:46:46.162Z,1011.82
2019-05-06T12:47:46.181Z,1011.77
2019-05-06T12:48:46.208Z,1011.79
2019-05-06T12:49:46.226Z,1011.72
2019-05-06T12:51:46.274Z,1011.77
2019-05-06T12:52:46.297Z,1011.72